createdAt,value
2023-02-22T00:01:02.149Z,78.86
2023-02-22T00:03:32.578Z,78.84
2023-02-22T00:06:05.428Z,78.74
2023-02-22T00:08:34.954Z,78.53
2023-02-22T00:11:08.697Z,78.41
2023-02-22T00:13:38.115Z,78.24
2023-02-22T00:16:07.123Z,78.19
2023-02-22T00:18:37.907Z,78.03
2023-02-22T00:21:10.729Z,78.01
2023-02-22T00:23:46.616Z,78.06
2023-02-22T00:26:19.462Z,77.83
2023-02-22T00:28:48.407Z,77.53
2023-02-22T00:31:17.374Z,77.41
2023-02-22T00:33:46.052Z,76.88
2023-02-22T00:36:15.454Z,76.64
2023-02-22T00:38:43.650Z,76.41
2023-02-22T00:41:12.233Z,76.26
2023-02-22T00:43:40.556Z,75.96
2023-02-22T00:46:09.158Z,75.70
2023-02-22T00:48:38.132Z,75.40
2023-02-22T00:51:06.811Z,75.00
2023-02-22T00:53:35.016Z,74.88
2023-02-22T00:56:03.413Z,74.79
2023-02-22T00:58:32.135Z,74.67
2023-02-22T01:01:00.806Z,74.40
2023-02-22T01:03:29.670Z,74.04
2023-02-22T01:06:01.193Z,73.91
2023-02-22T01:08:31.308Z,73.82
2023-02-22T01:10:59.947Z,73.63
2023-02-22T01:13:28.214Z,73.48
2023-02-22T01:15:57.388Z,73.48
2023-02-22T01:18:26.068Z,73.45
2023-02-22T01:20:54.520Z,73.44
2023-02-22T01:23:23.139Z,73.47
2023-02-22T01:25:51.722Z,73.53
2023-02-22T01:28:22.654Z,73.19
2023-02-22T01:30:52.641Z,73.19
2023-02-22T01:33:21.055Z,72.77
2023-02-22T01:35:51.020Z,72.41
2023-02-22T01:38:19.273Z,72.05
2023-02-22T01:40:49.868Z,71.97
2023-02-22T01:43:27.233Z,71.79
2023-02-22T01:46:21.616Z,71.56
2023-02-22T01:48:51.431Z,71.60
2023-02-22T01:51:22.543Z,71.58
2023-02-22T01:53:57.574Z,71.27
2023-02-22T01:56:27.434Z,70.90
2023-02-22T01:58:59.874Z,70.94
2023-02-22T02:01:28.385Z,70.87
2023-02-22T02:04:00.033Z,70.86
2023-02-22T02:06:34.634Z,70.87
2023-02-22T02:09:12.396Z,70.71
2023-02-22T02:11:41.065Z,70.62
2023-02-22T02:14:09.981Z,70.47
2023-02-22T02:16:40.718Z,70.38
2023-02-22T02:19:37.572Z,70.19
2023-02-22T02:22:50.207Z,69.52
2023-02-22T02:25:40.459Z,69.28
2023-02-22T02:28:40.596Z,68.22
2023-02-22T02:31:35.112Z,67.18
2023-02-22T02:34:29.435Z,66.73
2023-02-22T02:37:16.598Z,66.14
2023-02-22T02:39:59.961Z,65.98
2023-02-22T02:42:33.433Z,65.77
2023-02-22T02:45:20.706Z,65.40
2023-02-22T02:47:52.060Z,65.52
2023-02-22T02:50:30.019Z,65.96
2023-02-22T02:53:01.555Z,66.28
2023-02-22T02:55:30.457Z,66.64
2023-02-22T02:57:59.546Z,67.04
2023-02-22T03:00:31.678Z,67.11
2023-02-22T03:03:00.922Z,67.28
2023-02-22T03:06:16.551Z,67.49
2023-02-22T03:09:05.318Z,67.42
2023-02-22T03:11:48.618Z,67.13
2023-02-22T03:14:27.384Z,67.26
2023-02-22T03:17:02.228Z,67.41
2023-02-22T03:19:38.406Z,67.25
2023-02-22T03:22:14.193Z,67.10
2023-02-22T03:24:53.180Z,66.75
2023-02-22T03:27:35.160Z,66.65
2023-02-22T03:30:07.902Z,66.83
2023-02-22T03:32:41.369Z,66.88
2023-02-22T03:35:23.560Z,66.72
2023-02-22T03:37:56.805Z,66.34
2023-02-22T03:40:35.598Z,66.28
2023-02-22T03:43:10.470Z,66.72
2023-02-22T03:45:45.598Z,66.70
2023-02-22T03:48:19.906Z,66.85
2023-02-22T03:50:48.841Z,66.92
2023-02-22T03:53:20.194Z,66.87
2023-02-22T03:55:51.861Z,67.21
2023-02-22T03:58:21.954Z,67.41
2023-02-22T04:00:53.421Z,67.43
2023-02-22T04:03:24.437Z,67.88
2023-02-22T04:05:53.914Z,67.78
2023-02-22T04:08:23.618Z,67.89
2023-02-22T04:10:52.286Z,67.59
2023-02-22T04:13:23.389Z,67.44
2023-02-22T04:15:54.673Z,67.21
2023-02-22T04:18:23.817Z,67.28
2023-02-22T04:20:53.096Z,67.09
2023-02-22T04:23:36.219Z,66.60
2023-02-22T04:26:04.656Z,66.61
2023-02-22T04:28:32.975Z,66.29
2023-02-22T04:31:19.847Z,66.11
2023-02-22T04:33:49.250Z,66.23
2023-02-22T04:36:21.852Z,65.91
2023-02-22T04:38:50.946Z,66.21
2023-02-22T04:41:20.070Z,66.29
2023-02-22T04:43:48.380Z,66.08
2023-02-22T04:46:20.037Z,65.98
2023-02-22T04:48:49.424Z,65.96
2023-02-22T04:51:21.736Z,65.89
2023-02-22T04:54:00.493Z,65.58
2023-02-22T04:56:29.296Z,65.82
2023-02-22T04:58:59.573Z,65.55
2023-02-22T05:01:34.762Z,65.69
2023-02-22T05:04:05.286Z,65.37
2023-02-22T05:06:34.550Z,65.40
2023-02-22T05:09:03.023Z,64.92
2023-02-22T05:11:31.265Z,64.64
2023-02-22T05:13:59.933Z,64.46
2023-02-22T05:16:34.331Z,64.40
2023-02-22T05:19:02.639Z,64.15
2023-02-22T05:21:30.869Z,63.87
2023-02-22T05:23:59.439Z,64.07
2023-02-22T05:26:27.911Z,63.71
2023-02-22T05:28:56.105Z,63.73
2023-02-22T05:31:24.430Z,63.48
2023-02-22T05:33:58.397Z,63.49
2023-02-22T05:36:28.221Z,63.67
2023-02-22T05:38:56.653Z,63.35
2023-02-22T05:41:25.185Z,63.64
2023-02-22T05:43:53.406Z,63.22
2023-02-22T05:46:21.672Z,62.88
2023-02-22T05:48:50.218Z,62.81
2023-02-22T05:51:19.748Z,63.00
2023-02-22T05:53:48.354Z,63.24
2023-02-22T05:56:24.353Z,63.29
2023-02-22T05:58:52.711Z,63.47
2023-02-22T06:01:22.410Z,63.26
2023-02-22T06:03:51.461Z,63.26
2023-02-22T06:06:22.261Z,63.28
2023-02-22T06:08:50.866Z,63.40
2023-02-22T06:11:20.044Z,63.74
2023-02-22T06:13:52.074Z,63.70
2023-02-22T06:16:21.477Z,63.51
2023-02-22T06:18:49.877Z,64.02
2023-02-22T06:21:18.719Z,64.12
2023-02-22T06:23:47.484Z,63.89
2023-02-22T06:26:19.306Z,64.14
2023-02-22T06:28:47.600Z,63.95
2023-02-22T06:31:16.186Z,64.07
2023-02-22T06:33:44.999Z,63.71
2023-02-22T06:36:13.400Z,63.44
2023-02-22T06:38:41.867Z,63.32
2023-02-22T06:41:10.346Z,63.71
2023-02-22T06:43:40.128Z,64.10
2023-02-22T06:46:11.984Z,63.56
2023-02-22T06:48:40.443Z,63.07
2023-02-22T06:51:09.503Z,62.77
2023-02-22T06:53:39.237Z,62.51
2023-02-22T06:56:07.445Z,62.14
2023-02-22T06:58:37.183Z,61.68
2023-02-22T07:01:08.151Z,61.43
2023-02-22T07:03:36.842Z,60.65
2023-02-22T07:06:07.224Z,60.00
2023-02-22T07:08:39.974Z,59.49
2023-02-22T07:11:09.048Z,59.61
2023-02-22T07:13:37.767Z,59.31
2023-02-22T07:16:09.588Z,58.45
2023-02-22T07:18:38.842Z,58.09
2023-02-22T07:21:08.034Z,58.31
2023-02-22T07:23:36.671Z,58.22
2023-02-22T07:26:06.526Z,57.69
2023-02-22T07:28:35.033Z,57.61
2023-02-22T07:31:03.626Z,57.35
2023-02-22T07:33:32.392Z,57.08
2023-02-22T07:36:00.657Z,56.50
2023-02-22T07:38:29.222Z,56.22
2023-02-22T07:40:58.101Z,56.06
2023-02-22T07:43:29.442Z,55.82
2023-02-22T07:46:03.071Z,55.33
2023-02-22T07:48:32.064Z,54.83
2023-02-22T07:51:07.034Z,54.50
2023-02-22T07:53:35.234Z,54.53
2023-02-22T07:56:05.464Z,54.30
2023-02-22T07:58:36.055Z,54.27
2023-02-22T08:01:05.801Z,54.28
2023-02-22T08:03:36.858Z,54.40
2023-02-22T08:06:06.298Z,54.50
2023-02-22T08:08:35.242Z,54.85
2023-02-22T08:11:04.757Z,54.97
2023-02-22T08:13:33.505Z,54.70
2023-02-22T08:16:02.309Z,54.55
2023-02-22T08:18:30.927Z,54.39
2023-02-22T08:20:59.474Z,54.21
2023-02-22T08:23:28.004Z,53.90
2023-02-22T08:25:56.423Z,53.43
2023-02-22T08:28:26.034Z,53.80
2023-02-22T08:30:55.031Z,53.71
2023-02-22T08:33:25.868Z,53.23
2023-02-22T08:35:54.594Z,52.82
2023-02-22T08:38:27.670Z,52.35
2023-02-22T08:40:56.114Z,51.61
2023-02-22T08:43:24.738Z,50.88
2023-02-22T08:45:56.879Z,50.41
2023-02-22T08:48:26.789Z,50.23
2023-02-22T08:50:56.407Z,50.04
2023-02-22T08:53:26.211Z,49.56
2023-02-22T08:55:54.469Z,48.96
2023-02-22T08:58:24.219Z,48.44
2023-02-22T09:01:08.522Z,48.10
2023-02-22T09:03:37.547Z,47.48
2023-02-22T09:06:08.261Z,47.12
2023-02-22T09:08:36.967Z,46.89
2023-02-22T09:11:06.284Z,46.67
2023-02-22T09:13:34.901Z,46.69
2023-02-22T09:16:03.622Z,47.28
2023-02-22T09:18:43.483Z,47.04
2023-02-22T09:21:13.171Z,46.91
2023-02-22T09:23:42.502Z,46.69
2023-02-22T09:26:16.231Z,47.04
2023-02-22T09:28:44.674Z,46.93
2023-02-22T09:31:13.095Z,46.76
2023-02-22T09:33:42.064Z,46.10
2023-02-22T09:36:13.049Z,45.45
2023-02-22T09:38:42.592Z,45.17
2023-02-22T09:41:14.199Z,45.18
2023-02-22T09:43:51.466Z,45.13
2023-02-22T09:46:29.696Z,45.51
2023-02-22T09:49:05.520Z,45.43
2023-02-22T09:51:49.588Z,44.52
2023-02-22T09:54:28.560Z,44.15
2023-02-22T09:56:57.764Z,43.80
2023-02-22T09:59:37.471Z,43.41
2023-02-22T10:02:40.306Z,43.47
2023-02-22T10:05:23.064Z,42.73
2023-02-22T10:07:59.016Z,42.48
2023-02-22T10:10:33.703Z,41.50
2023-02-22T10:13:22.405Z,40.87
2023-02-22T10:16:11.472Z,41.03
2023-02-22T10:19:00.916Z,40.48
2023-02-22T10:21:53.784Z,40.34
2023-02-22T10:24:39.815Z,40.40
2023-02-22T10:27:22.896Z,40.29
2023-02-22T10:29:55.370Z,40.03
2023-02-22T10:32:33.616Z,40.56
2023-02-22T10:35:21.881Z,40.59
2023-02-22T10:37:59.312Z,40.44
2023-02-22T10:40:33.469Z,40.61
2023-02-22T10:43:04.072Z,40.59
2023-02-22T10:45:34.604Z,40.15
2023-02-22T10:48:08.774Z,40.19
2023-02-22T10:50:43.035Z,39.90
2023-02-22T10:53:18.190Z,39.91
2023-02-22T10:56:09.993Z,40.00
2023-02-22T10:59:02.566Z,39.76
2023-02-22T11:01:32.010Z,39.75
2023-02-22T11:04:06.338Z,39.70
2023-02-22T11:06:35.979Z,39.37
2023-02-22T11:09:06.730Z,39.61
2023-02-22T11:11:35.851Z,39.49
2023-02-22T11:14:06.813Z,39.14
2023-02-22T11:16:49.947Z,39.34
2023-02-22T11:19:23.198Z,39.15
2023-02-22T11:21:55.772Z,39.76
2023-02-22T11:24:30.238Z,40.20
2023-02-22T11:27:03.516Z,40.20
2023-02-22T11:29:36.581Z,40.02
2023-02-22T11:32:14.577Z,39.46
2023-02-22T11:34:54.864Z,39.54
2023-02-22T11:37:32.640Z,39.53
2023-02-22T11:40:13.014Z,39.64
2023-02-22T11:42:43.893Z,39.97
2023-02-22T11:45:13.161Z,39.94
2023-02-22T11:48:04.205Z,40.16
2023-02-22T11:50:53.952Z,40.71
2023-02-22T11:53:27.460Z,40.51
2023-02-22T11:56:12.285Z,40.76
2023-02-22T11:58:46.620Z,41.32
2023-02-22T12:01:42.929Z,41.22
2023-02-22T12:04:49.947Z,41.68
2023-02-22T12:07:24.393Z,41.42
2023-02-22T12:10:01.582Z,41.74
2023-02-22T12:12:46.266Z,41.86
2023-02-22T12:15:29.994Z,41.60
2023-02-22T12:18:05.376Z,41.60
2023-02-22T12:20:40.140Z,41.69
2023-02-22T12:23:16.918Z,41.25
2023-02-22T12:25:58.935Z,41.36
2023-02-22T12:28:36.767Z,41.27
2023-02-22T12:31:28.643Z,41.04
2023-02-22T12:34:27.340Z,40.84
2023-02-22T12:37:14.106Z,40.47
2023-02-22T12:39:53.723Z,39.88
2023-02-22T12:42:47.995Z,40.04
2023-02-22T12:45:44.141Z,39.87
2023-02-22T12:48:33.834Z,39.42
2023-02-22T12:51:15.697Z,39.33
2023-02-22T12:53:58.109Z,39.32
2023-02-22T12:56:33.841Z,39.23
2023-02-22T12:59:36.325Z,39.38
2023-02-22T13:02:21.272Z,39.80
2023-02-22T13:04:50.078Z,39.65
2023-02-22T13:07:33.763Z,39.63
2023-02-22T13:10:14.018Z,40.40
2023-02-22T13:13:03.915Z,40.34
2023-02-22T13:15:38.479Z,40.34
2023-02-22T13:18:19.377Z,40.16
2023-02-22T13:21:09.280Z,40.62
2023-02-22T13:23:47.198Z,40.67
2023-02-22T13:26:34.098Z,40.76
2023-02-22T13:29:14.055Z,41.02
2023-02-22T13:31:49.557Z,41.35
2023-02-22T13:34:24.631Z,41.78
2023-02-22T13:37:30.650Z,41.74
2023-02-22T13:40:22.128Z,42.00
2023-02-22T13:43:23.724Z,42.28
2023-02-22T13:46:13.535Z,42.50
2023-02-22T13:49:06.588Z,42.57
2023-02-22T13:52:01.611Z,43.31
2023-02-22T13:54:35.489Z,43.49
2023-02-22T13:57:03.881Z,43.20
2023-02-22T13:59:36.274Z,43.51
2023-02-22T14:02:05.657Z,43.82
2023-02-22T14:04:38.862Z,44.07
2023-02-22T14:07:29.996Z,44.11
2023-02-22T14:10:01.855Z,44.38
2023-02-22T14:12:30.848Z,44.24
2023-02-22T14:15:31.040Z,44.57
2023-02-22T14:18:04.380Z,44.97
2023-02-22T14:20:38.530Z,45.33
2023-02-22T14:23:52.534Z,45.41
2023-02-22T14:26:35.260Z,45.60
2023-02-22T14:29:10.343Z,45.69
2023-02-22T14:31:45.279Z,45.71
2023-02-22T14:34:16.154Z,45.77
2023-02-22T14:36:51.442Z,46.07
2023-02-22T14:39:32.351Z,46.08
2023-02-22T14:42:17.978Z,46.32
2023-02-22T14:44:53.768Z,46.58
2023-02-22T14:48:01.190Z,46.65
2023-02-22T14:50:53.065Z,46.73
2023-02-22T14:53:31.740Z,46.72
2023-02-22T14:56:07.810Z,47.13
2023-02-22T14:58:58.870Z,47.32
2023-02-22T15:01:44.427Z,47.66
2023-02-22T15:04:17.956Z,47.84
2023-02-22T15:06:47.465Z,48.09
2023-02-22T15:09:29.236Z,48.24
2023-02-22T15:12:03.120Z,48.38
2023-02-22T15:14:37.951Z,48.32
2023-02-22T15:17:22.227Z,48.57
2023-02-22T15:19:50.547Z,48.73
2023-02-22T15:22:24.022Z,48.78
2023-02-22T15:25:12.543Z,48.82
2023-02-22T15:27:46.108Z,49.14
2023-02-22T15:30:26.780Z,49.08
2023-02-22T15:33:04.105Z,49.36
2023-02-22T15:35:34.328Z,49.61
2023-02-22T15:38:06.581Z,49.75
2023-02-22T15:40:35.406Z,49.79
2023-02-22T15:43:09.135Z,49.94
2023-02-22T15:45:43.281Z,50.23
2023-02-22T15:48:11.842Z,50.23
2023-02-22T15:51:21.361Z,50.14
2023-02-22T15:53:50.073Z,50.58
2023-02-22T15:56:24.702Z,50.74
2023-02-22T15:58:53.126Z,51.04
2023-02-22T16:01:21.864Z,51.28
2023-02-22T16:03:52.048Z,51.52
2023-02-22T16:06:29.377Z,51.82
2023-02-22T16:08:59.345Z,52.17
2023-02-22T16:11:33.531Z,52.53
2023-02-22T16:14:05.317Z,52.64
2023-02-22T16:16:35.518Z,52.64
2023-02-22T16:19:28.843Z,52.94
2023-02-22T16:22:03.082Z,53.21
2023-02-22T16:24:34.686Z,53.39
2023-02-22T16:27:16.021Z,53.76
2023-02-22T16:30:04.397Z,53.94
2023-02-22T16:32:36.418Z,54.28
2023-02-22T16:35:18.097Z,54.53
2023-02-22T16:37:49.562Z,54.66
2023-02-22T16:40:32.598Z,54.85
2023-02-22T16:43:08.357Z,55.08
2023-02-22T16:45:36.628Z,55.08
2023-02-22T16:48:19.356Z,55.29
2023-02-22T16:50:51.661Z,55.60
2023-02-22T16:53:22.127Z,55.61
2023-02-22T16:55:53.864Z,56.02
2023-02-22T16:58:27.957Z,56.03
2023-02-22T17:00:57.799Z,56.14
2023-02-22T17:03:26.649Z,56.06
2023-02-22T17:05:54.969Z,56.10
2023-02-22T17:08:24.350Z,56.19
2023-02-22T17:10:56.886Z,56.46
2023-02-22T17:13:27.292Z,56.27
2023-02-22T17:15:57.173Z,56.35
2023-02-22T17:18:30.534Z,56.64
2023-02-22T17:20:59.060Z,56.53
2023-02-22T17:23:33.166Z,56.77
2023-02-22T17:26:04.191Z,56.73
2023-02-22T17:28:32.961Z,56.66
2023-02-22T17:31:02.128Z,56.79
2023-02-22T17:33:33.089Z,56.87
2023-02-22T17:36:07.236Z,56.74
2023-02-22T17:38:36.609Z,56.99
2023-02-22T17:41:05.528Z,57.02
2023-02-22T17:43:34.419Z,56.89
2023-02-22T17:46:08.119Z,56.75
2023-02-22T17:48:36.749Z,56.95
2023-02-22T17:51:06.977Z,56.72
2023-02-22T17:53:36.033Z,56.89
2023-02-22T17:56:09.129Z,56.60
2023-02-22T17:58:38.528Z,56.70
2023-02-22T18:01:07.337Z,56.59
2023-02-22T18:03:39.541Z,56.80
2023-02-22T18:06:08.315Z,56.88
2023-02-22T18:08:39.242Z,56.89
2023-02-22T18:11:07.863Z,57.05
2023-02-22T18:13:36.626Z,57.07
2023-02-22T18:16:10.217Z,57.06
2023-02-22T18:18:57.401Z,57.05
2023-02-22T18:21:31.734Z,56.72
2023-02-22T18:24:00.560Z,56.99
2023-02-22T18:26:29.752Z,56.73
2023-02-22T18:29:01.327Z,56.51
2023-02-22T18:31:29.952Z,56.64
2023-02-22T18:33:58.629Z,56.32
2023-02-22T18:36:27.228Z,56.66
2023-02-22T18:38:56.212Z,56.43
2023-02-22T18:41:28.584Z,56.68
2023-02-22T18:44:00.515Z,56.76
2023-02-22T18:46:30.500Z,56.50
2023-02-22T18:49:00.049Z,56.41
2023-02-22T18:51:28.544Z,56.26
2023-02-22T18:54:00.766Z,56.28
2023-02-22T18:56:31.026Z,56.44
2023-02-22T18:59:01.435Z,56.25
2023-02-22T19:01:30.846Z,56.30
2023-02-22T19:04:00.423Z,55.99
2023-02-22T19:06:29.232Z,56.36
2023-02-22T19:09:01.509Z,56.06
2023-02-22T19:11:30.780Z,56.09
2023-02-22T19:14:00.734Z,56.08
2023-02-22T19:16:33.008Z,55.81
2023-02-22T19:19:01.459Z,55.88
2023-02-22T19:21:30.991Z,55.63
2023-02-22T19:24:06.906Z,55.77
2023-02-22T19:26:36.477Z,55.73
2023-02-22T19:29:10.183Z,55.75
2023-02-22T19:31:40.277Z,55.76
2023-02-22T19:34:10.844Z,55.48
2023-02-22T19:36:46.393Z,55.48
2023-02-22T19:39:16.428Z,55.24
2023-02-22T19:41:44.826Z,55.59
2023-02-22T19:44:13.742Z,55.57
2023-02-22T19:46:42.829Z,55.24
2023-02-22T19:49:11.498Z,55.45
2023-02-22T19:51:39.936Z,55.18
2023-02-22T19:54:12.056Z,54.94
2023-02-22T19:56:41.031Z,54.77
2023-02-22T19:59:13.689Z,54.66
2023-02-22T20:01:44.810Z,54.45
2023-02-22T20:04:18.708Z,54.32
2023-02-22T20:06:50.735Z,54.32
2023-02-22T20:09:20.595Z,54.34
2023-02-22T20:11:51.649Z,54.04
2023-02-22T20:14:23.539Z,53.89
2023-02-22T20:16:58.237Z,53.81
2023-02-22T20:19:27.572Z,53.85
2023-02-22T20:21:56.890Z,53.95
2023-02-22T20:24:25.968Z,53.91
2023-02-22T20:26:57.426Z,54.19
2023-02-22T20:29:31.226Z,54.42
2023-02-22T20:32:01.239Z,54.33
2023-02-22T20:34:32.593Z,54.43
2023-02-22T20:37:01.451Z,54.35
2023-02-22T20:39:30.302Z,54.33
2023-02-22T20:42:03.698Z,54.14
2023-02-22T20:44:34.864Z,54.10
2023-02-22T20:47:04.063Z,53.99
2023-02-22T20:49:33.360Z,54.15
2023-02-22T20:52:02.724Z,54.40
2023-02-22T20:54:34.432Z,54.57
2023-02-22T20:57:02.769Z,54.60
2023-02-22T20:59:31.678Z,54.36
2023-02-22T21:02:00.527Z,54.39
2023-02-22T21:04:33.959Z,54.54
2023-02-22T21:07:03.249Z,54.89
2023-02-22T21:09:34.644Z,54.77
2023-02-22T21:12:04.384Z,54.70
2023-02-22T21:14:33.258Z,54.44
2023-02-22T21:17:04.688Z,54.24
2023-02-22T21:19:34.701Z,53.96
2023-02-22T21:22:08.964Z,53.63
2023-02-22T21:24:39.457Z,53.98
2023-02-22T21:27:08.911Z,53.73
2023-02-22T21:29:38.709Z,53.72
2023-02-22T21:32:08.845Z,53.64
2023-02-22T21:34:38.586Z,53.41
2023-02-22T21:37:08.489Z,52.96
2023-02-22T21:39:40.236Z,52.74
2023-02-22T21:42:08.919Z,52.75
2023-02-22T21:44:37.362Z,52.87
2023-02-22T21:47:07.778Z,53.27
2023-02-22T21:49:38.139Z,53.66
2023-02-22T21:52:08.052Z,53.59
2023-02-22T21:54:39.526Z,53.50
2023-02-22T21:57:09.072Z,53.42
2023-02-22T21:59:39.527Z,53.24
2023-02-22T22:02:10.260Z,53.65
2023-02-22T22:04:38.596Z,53.97
2023-02-22T22:07:09.368Z,54.19
2023-02-22T22:09:41.433Z,54.19
2023-02-22T22:12:14.948Z,54.36
2023-02-22T22:14:45.559Z,54.32
2023-02-22T22:17:14.603Z,54.54
2023-02-22T22:19:44.937Z,54.89
2023-02-22T22:22:13.200Z,54.83
2023-02-22T22:24:45.876Z,55.19
2023-02-22T22:27:15.243Z,55.46
2023-02-22T22:29:43.642Z,55.66
2023-02-22T22:32:16.307Z,55.69
2023-02-22T22:34:49.545Z,55.52
2023-02-22T22:37:18.709Z,55.27
2023-02-22T22:39:47.150Z,54.74
2023-02-22T22:42:15.706Z,54.67
2023-02-22T22:44:43.858Z,54.36
2023-02-22T22:47:12.628Z,53.58
2023-02-22T22:49:42.708Z,52.97
2023-02-22T22:52:14.025Z,52.70
2023-02-22T22:54:43.522Z,52.55
2023-02-22T22:57:11.835Z,52.27
2023-02-22T22:59:40.126Z,52.38
2023-02-22T23:02:11.583Z,52.22
2023-02-22T23:04:40.168Z,51.79
2023-02-22T23:07:08.578Z,51.36
2023-02-22T23:09:39.634Z,51.07
2023-02-22T23:12:16.897Z,50.66
2023-02-22T23:14:52.127Z,50.66
2023-02-22T23:17:41.278Z,50.82
2023-02-22T23:20:13.588Z,50.64
2023-02-22T23:22:47.505Z,50.54
2023-02-22T23:25:21.563Z,50.39
2023-02-22T23:27:50.805Z,50.36
2023-02-22T23:30:21.568Z,50.11
2023-02-22T23:32:50.098Z,50.16
2023-02-22T23:35:21.202Z,50.10
2023-02-22T23:37:53.135Z,50.01
2023-02-22T23:40:21.514Z,50.03
2023-02-22T23:42:53.909Z,50.10
2023-02-22T23:45:23.142Z,50.08
2023-02-22T23:47:55.098Z,50.02
2023-02-22T23:50:27.330Z,49.98
2023-02-22T23:53:00.051Z,49.96
2023-02-22T23:55:31.734Z,50.03
2023-02-22T23:58:00.117Z,50.25
